sensor_id;sensor_type;location;lat;lon;timestamp;P1;durP1;ratioP1;P2;durP2;ratioP2
61640;SDS011;62201;49.966;8.342;2023-02-28T00:00:29;3.43;;;1.30;;
61640;SDS011;62201;49.966;8.342;2023-02-28T00:02:55;2.63;;;1.20;;
61640;SDS011;62201;49.966;8.342;2023-02-28T00:05:21;2.63;;;1.23;;
61640;SDS011;62201;49.966;8.342;2023-02-28T00:07:47;2.63;;;1.13;;
61640;SDS011;62201;49.966;8.342;2023-02-28T00:10:16;4.40;;;1.30;;
61640;SDS011;62201;49.966;8.342;2023-02-28T00:12:49;1.70;;;1.03;;
61640;SDS011;62201;49.966;8.342;2023-02-28T00:15:15;1.63;;;1.07;;
61640;SDS011;62201;49.966;8.342;2023-02-28T00:17:41;5.27;;;1.40;;
61640;SDS011;62201;49.966;8.342;2023-02-28T00:20:06;3.33;;;1.23;;
61640;SDS011;62201;49.966;8.342;2023-02-28T00:22:35;4.60;;;1.10;;
61640;SDS011;62201;49.966;8.342;2023-02-28T00:25:01;1.97;;;1.20;;
61640;SDS011;62201;49.966;8.342;2023-02-28T00:27:27;3.43;;;1.40;;
61640;SDS011;62201;49.966;8.342;2023-02-28T00:29:52;2.20;;;1.13;;
61640;SDS011;62201;49.966;8.342;2023-02-28T00:32:19;4.40;;;1.70;;
61640;SDS011;62201;49.966;8.342;2023-02-28T00:34:44;1.73;;;1.10;;
61640;SDS011;62201;49.966;8.342;2023-02-28T00:37:10;2.33;;;1.17;;
61640;SDS011;62201;49.966;8.342;2023-02-28T00:39:39;3.13;;;1.30;;
61640;SDS011;62201;49.966;8.342;2023-02-28T00:42:05;2.70;;;1.30;;
61640;SDS011;62201;49.966;8.342;2023-02-28T00:44:31;3.43;;;1.27;;
61640;SDS011;62201;49.966;8.342;2023-02-28T00:46:57;3.43;;;1.47;;
61640;SDS011;62201;49.966;8.342;2023-02-28T00:49:23;2.00;;;1.43;;
61640;SDS011;62201;49.966;8.342;2023-02-28T00:51:49;3.00;;;1.50;;
61640;SDS011;62201;49.966;8.342;2023-02-28T00:54:15;2.67;;;1.37;;
61640;SDS011;62201;49.966;8.342;2023-02-28T00:56:41;2.80;;;1.53;;
61640;SDS011;62201;49.966;8.342;2023-02-28T00:59:06;5.30;;;1.60;;
61640;SDS011;62201;49.966;8.342;2023-02-28T01:01:32;2.93;;;1.50;;
61640;SDS011;62201;49.966;8.342;2023-02-28T01:03:57;2.80;;;1.60;;
61640;SDS011;62201;49.966;8.342;2023-02-28T01:06:23;2.30;;;1.33;;
61640;SDS011;62201;49.966;8.342;2023-02-28T01:08:48;5.27;;;1.70;;
61640;SDS011;62201;49.966;8.342;2023-02-28T01:11:15;3.03;;;1.63;;
61640;SDS011;62201;49.966;8.342;2023-02-28T01:13:44;2.80;;;1.63;;
61640;SDS011;62201;49.966;8.342;2023-02-28T01:16:11;4.43;;;1.90;;
61640;SDS011;62201;49.966;8.342;2023-02-28T01:18:37;3.40;;;1.97;;
61640;SDS011;62201;49.966;8.342;2023-02-28T01:21:04;4.37;;;2.40;;
61640;SDS011;62201;49.966;8.342;2023-02-28T01:23:34;3.17;;;2.03;;
61640;SDS011;62201;49.966;8.342;2023-02-28T01:26:10;3.73;;;2.00;;
61640;SDS011;62201;49.966;8.342;2023-02-28T01:28:35;4.20;;;2.23;;
61640;SDS011;62201;49.966;8.342;2023-02-28T01:31:01;3.43;;;2.23;;
61640;SDS011;62201;49.966;8.342;2023-02-28T01:33:27;4.53;;;2.37;;
61640;SDS011;62201;49.966;8.342;2023-02-28T01:36:10;5.73;;;2.80;;
61640;SDS011;62201;49.966;8.342;2023-02-28T01:38:40;5.40;;;2.53;;
61640;SDS011;62201;49.966;8.342;2023-02-28T01:41:06;5.67;;;2.90;;
61640;SDS011;62201;49.966;8.342;2023-02-28T01:46:07;3.87;;;2.80;;
61640;SDS011;62201;49.966;8.342;2023-02-28T01:48:35;4.43;;;3.03;;
61640;SDS011;62201;49.966;8.342;2023-02-28T01:51:07;5.35;;;3.60;;
61640;SDS011;62201;49.966;8.342;2023-02-28T01:53:37;7.33;;;3.23;;
61640;SDS011;62201;49.966;8.342;2023-02-28T01:56:12;6.03;;;3.00;;
61640;SDS011;62201;49.966;8.342;2023-02-28T01:58:45;5.93;;;3.42;;
61640;SDS011;62201;49.966;8.342;2023-02-28T02:01:12;5.00;;;3.40;;
61640;SDS011;62201;49.966;8.342;2023-02-28T02:03:46;6.67;;;3.47;;
61640;SDS011;62201;49.966;8.342;2023-02-28T02:06:13;4.87;;;3.33;;
61640;SDS011;62201;49.966;8.342;2023-02-28T02:08:38;6.60;;;3.83;;
61640;SDS011;62201;49.966;8.342;2023-02-28T02:11:04;5.67;;;3.53;;
61640;SDS011;62201;49.966;8.342;2023-02-28T02:16:17;4.47;;;3.60;;
61640;SDS011;62201;49.966;8.342;2023-02-28T02:24:28;5.77;;;3.90;;
61640;SDS011;62201;49.966;8.342;2023-02-28T02:27:25;4.13;;;3.63;;
61640;SDS011;62201;49.966;8.342;2023-02-28T02:32:49;4.10;;;3.45;;
61640;SDS011;62201;49.966;8.342;2023-02-28T02:41:19;6.97;;;4.00;;
61640;SDS011;62201;49.966;8.342;2023-02-28T02:43:54;5.25;;;3.88;;
61640;SDS011;62201;49.966;8.342;2023-02-28T02:46:26;6.27;;;4.70;;
61640;SDS011;62201;49.966;8.342;2023-02-28T02:49:04;8.73;;;4.37;;
61640;SDS011;62201;49.966;8.342;2023-02-28T02:51:33;5.97;;;4.47;;
61640;SDS011;62201;49.966;8.342;2023-02-28T02:56:40;7.87;;;4.50;;
61640;SDS011;62201;49.966;8.342;2023-02-28T02:59:09;6.10;;;4.23;;
61640;SDS011;62201;49.966;8.342;2023-02-28T03:01:37;6.50;;;4.87;;
61640;SDS011;62201;49.966;8.342;2023-02-28T03:04:08;7.73;;;4.67;;
61640;SDS011;62201;49.966;8.342;2023-02-28T03:06:37;7.43;;;4.47;;
61640;SDS011;62201;49.966;8.342;2023-02-28T03:09:02;5.10;;;4.10;;
61640;SDS011;62201;49.966;8.342;2023-02-28T03:11:29;7.83;;;4.47;;
61640;SDS011;62201;49.966;8.342;2023-02-28T03:16:49;7.10;;;4.40;;
61640;SDS011;62201;49.966;8.342;2023-02-28T03:27:09;6.57;;;4.20;;
61640;SDS011;62201;49.966;8.342;2023-02-28T03:29:42;7.50;;;3.97;;
61640;SDS011;62201;49.966;8.342;2023-02-28T03:32:14;5.67;;;3.50;;
61640;SDS011;62201;49.966;8.342;2023-02-28T03:34:58;5.77;;;4.00;;
61640;SDS011;62201;49.966;8.342;2023-02-28T03:37:30;7.17;;;3.87;;
61640;SDS011;62201;49.966;8.342;2023-02-28T03:40:22;6.57;;;3.90;;
61640;SDS011;62201;49.966;8.342;2023-02-28T03:42:48;5.93;;;3.87;;
61640;SDS011;62201;49.966;8.342;2023-02-28T03:45:21;5.80;;;4.17;;
61640;SDS011;62201;49.966;8.342;2023-02-28T03:50:40;5.43;;;3.73;;
61640;SDS011;62201;49.966;8.342;2023-02-28T03:56:42;5.17;;;3.70;;
61640;SDS011;62201;49.966;8.342;2023-02-28T04:04:00;7.30;;;3.70;;
61640;SDS011;62201;49.966;8.342;2023-02-28T04:06:26;7.70;;;4.20;;
61640;SDS011;62201;49.966;8.342;2023-02-28T04:08:52;8.23;;;3.47;;
61640;SDS011;62201;49.966;8.342;2023-02-28T04:11:20;5.00;;;3.77;;
61640;SDS011;62201;49.966;8.342;2023-02-28T04:13:48;5.43;;;3.60;;
61640;SDS011;62201;49.966;8.342;2023-02-28T04:16:13;7.90;;;3.60;;
61640;SDS011;62201;49.966;8.342;2023-02-28T04:18:39;6.33;;;3.80;;
61640;SDS011;62201;49.966;8.342;2023-02-28T04:21:05;5.90;;;3.87;;
61640;SDS011;62201;49.966;8.342;2023-02-28T04:23:31;6.03;;;3.73;;
61640;SDS011;62201;49.966;8.342;2023-02-28T04:25:57;6.27;;;4.00;;
61640;SDS011;62201;49.966;8.342;2023-02-28T04:28:22;6.50;;;4.07;;
61640;SDS011;62201;49.966;8.342;2023-02-28T04:30:53;4.87;;;3.90;;
61640;SDS011;62201;49.966;8.342;2023-02-28T04:33:22;5.80;;;3.90;;
61640;SDS011;62201;49.966;8.342;2023-02-28T04:35:47;5.10;;;3.60;;
61640;SDS011;62201;49.966;8.342;2023-02-28T04:38:12;5.23;;;3.93;;
61640;SDS011;62201;49.966;8.342;2023-02-28T04:40:38;5.37;;;3.90;;
61640;SDS011;62201;49.966;8.342;2023-02-28T04:43:03;7.47;;;3.90;;
61640;SDS011;62201;49.966;8.342;2023-02-28T04:45:29;7.23;;;3.83;;
61640;SDS011;62201;49.966;8.342;2023-02-28T04:47:57;5.83;;;4.00;;
61640;SDS011;62201;49.966;8.342;2023-02-28T04:50:22;5.17;;;3.80;;
61640;SDS011;62201;49.966;8.342;2023-02-28T04:52:48;5.53;;;3.60;;
61640;SDS011;62201;49.966;8.342;2023-02-28T04:55:13;7.03;;;3.80;;
61640;SDS011;62201;49.966;8.342;2023-02-28T04:57:39;5.00;;;3.50;;
61640;SDS011;62201;49.966;8.342;2023-02-28T05:00:04;5.67;;;3.53;;
61640;SDS011;62201;49.966;8.342;2023-02-28T05:02:36;4.57;;;3.30;;
61640;SDS011;62201;49.966;8.342;2023-02-28T05:05:02;5.53;;;3.50;;
61640;SDS011;62201;49.966;8.342;2023-02-28T05:07:27;7.47;;;3.70;;
61640;SDS011;62201;49.966;8.342;2023-02-28T05:09:52;7.23;;;4.20;;
61640;SDS011;62201;49.966;8.342;2023-02-28T05:12:18;4.80;;;3.50;;
61640;SDS011;62201;49.966;8.342;2023-02-28T05:14:43;4.97;;;3.30;;
61640;SDS011;62201;49.966;8.342;2023-02-28T05:17:09;5.97;;;3.50;;
61640;SDS011;62201;49.966;8.342;2023-02-28T05:19:35;6.47;;;3.40;;
61640;SDS011;62201;49.966;8.342;2023-02-28T05:22:00;5.47;;;3.70;;
61640;SDS011;62201;49.966;8.342;2023-02-28T05:24:25;5.53;;;3.70;;
61640;SDS011;62201;49.966;8.342;2023-02-28T05:26:51;7.63;;;3.77;;
61640;SDS011;62201;49.966;8.342;2023-02-28T05:29:18;5.73;;;3.67;;
61640;SDS011;62201;49.966;8.342;2023-02-28T05:31:44;8.60;;;3.43;;
61640;SDS011;62201;49.966;8.342;2023-02-28T05:34:09;5.63;;;3.67;;
61640;SDS011;62201;49.966;8.342;2023-02-28T05:36:37;4.70;;;3.37;;
61640;SDS011;62201;49.966;8.342;2023-02-28T05:39:03;6.53;;;3.73;;
61640;SDS011;62201;49.966;8.342;2023-02-28T05:41:29;6.13;;;3.30;;
61640;SDS011;62201;49.966;8.342;2023-02-28T05:43:55;6.97;;;3.57;;
61640;SDS011;62201;49.966;8.342;2023-02-28T05:46:20;5.13;;;3.00;;
61640;SDS011;62201;49.966;8.342;2023-02-28T05:48:46;7.40;;;3.60;;
61640;SDS011;62201;49.966;8.342;2023-02-28T05:51:12;4.87;;;3.17;;
61640;SDS011;62201;49.966;8.342;2023-02-28T05:53:38;6.83;;;3.70;;
61640;SDS011;62201;49.966;8.342;2023-02-28T05:56:03;5.97;;;3.57;;
61640;SDS011;62201;49.966;8.342;2023-02-28T05:58:29;6.07;;;3.50;;
61640;SDS011;62201;49.966;8.342;2023-02-28T06:00:59;5.00;;;3.47;;
61640;SDS011;62201;49.966;8.342;2023-02-28T06:03:25;4.83;;;3.03;;
61640;SDS011;62201;49.966;8.342;2023-02-28T06:05:51;5.47;;;3.30;;
61640;SDS011;62201;49.966;8.342;2023-02-28T06:08:17;4.67;;;3.10;;
61640;SDS011;62201;49.966;8.342;2023-02-28T06:10:43;4.73;;;3.30;;
61640;SDS011;62201;49.966;8.342;2023-02-28T06:13:08;5.87;;;3.20;;
61640;SDS011;62201;49.966;8.342;2023-02-28T06:15:34;6.40;;;3.20;;
61640;SDS011;62201;49.966;8.342;2023-02-28T06:17:59;6.73;;;3.17;;
61640;SDS011;62201;49.966;8.342;2023-02-28T06:20:25;5.00;;;3.30;;
61640;SDS011;62201;49.966;8.342;2023-02-28T06:22:54;6.73;;;3.37;;
61640;SDS011;62201;49.966;8.342;2023-02-28T06:25:26;5.10;;;2.87;;
61640;SDS011;62201;49.966;8.342;2023-02-28T06:27:53;7.13;;;3.37;;
61640;SDS011;62201;49.966;8.342;2023-02-28T06:30:20;6.27;;;3.27;;
61640;SDS011;62201;49.966;8.342;2023-02-28T06:32:51;5.20;;;3.20;;
61640;SDS011;62201;49.966;8.342;2023-02-28T06:35:17;5.43;;;3.40;;
61640;SDS011;62201;49.966;8.342;2023-02-28T06:37:43;4.93;;;3.17;;
61640;SDS011;62201;49.966;8.342;2023-02-28T06:40:09;7.10;;;3.87;;
61640;SDS011;62201;49.966;8.342;2023-02-28T06:42:35;6.00;;;3.30;;
61640;SDS011;62201;49.966;8.342;2023-02-28T06:45:00;8.40;;;3.47;;
61640;SDS011;62201;49.966;8.342;2023-02-28T06:47:28;7.53;;;3.50;;
61640;SDS011;62201;49.966;8.342;2023-02-28T06:49:55;7.80;;;3.43;;
61640;SDS011;62201;49.966;8.342;2023-02-28T06:52:20;5.77;;;3.63;;
61640;SDS011;62201;49.966;8.342;2023-02-28T06:54:47;7.13;;;3.70;;
61640;SDS011;62201;49.966;8.342;2023-02-28T06:57:12;7.53;;;4.00;;
61640;SDS011;62201;49.966;8.342;2023-02-28T06:59:37;5.93;;;3.13;;
61640;SDS011;62201;49.966;8.342;2023-02-28T07:02:03;4.77;;;2.30;;
61640;SDS011;62201;49.966;8.342;2023-02-28T07:04:28;6.40;;;3.53;;
61640;SDS011;62201;49.966;8.342;2023-02-28T07:06:54;6.40;;;3.30;;
61640;SDS011;62201;49.966;8.342;2023-02-28T07:09:21;5.50;;;3.20;;
61640;SDS011;62201;49.966;8.342;2023-02-28T07:11:47;7.30;;;3.27;;
61640;SDS011;62201;49.966;8.342;2023-02-28T07:14:12;5.43;;;3.10;;
61640;SDS011;62201;49.966;8.342;2023-02-28T07:16:38;6.93;;;3.00;;
61640;SDS011;62201;49.966;8.342;2023-02-28T07:19:03;8.37;;;3.47;;
61640;SDS011;62201;49.966;8.342;2023-02-28T07:21:28;7.60;;;2.90;;
61640;SDS011;62201;49.966;8.342;2023-02-28T07:23:55;4.90;;;2.80;;
61640;SDS011;62201;49.966;8.342;2023-02-28T07:26:21;6.40;;;3.10;;
61640;SDS011;62201;49.966;8.342;2023-02-28T07:28:47;7.83;;;3.03;;
61640;SDS011;62201;49.966;8.342;2023-02-28T07:31:13;6.97;;;3.50;;
61640;SDS011;62201;49.966;8.342;2023-02-28T07:33:39;6.67;;;3.10;;
61640;SDS011;62201;49.966;8.342;2023-02-28T07:36:06;6.73;;;3.53;;
61640;SDS011;62201;49.966;8.342;2023-02-28T07:38:38;8.05;;;3.83;;
61640;SDS011;62201;49.966;8.342;2023-02-28T07:41:03;6.47;;;3.53;;
61640;SDS011;62201;49.966;8.342;2023-02-28T07:43:29;12.33;;;3.00;;
61640;SDS011;62201;49.966;8.342;2023-02-28T07:46:00;5.40;;;3.30;;
61640;SDS011;62201;49.966;8.342;2023-02-28T07:48:29;7.17;;;3.50;;
61640;SDS011;62201;49.966;8.342;2023-02-28T07:50:55;6.23;;;3.33;;
61640;SDS011;62201;49.966;8.342;2023-02-28T07:53:21;3.93;;;2.37;;
61640;SDS011;62201;49.966;8.342;2023-02-28T07:55:47;7.57;;;3.00;;
61640;SDS011;62201;49.966;8.342;2023-02-28T07:58:12;6.63;;;3.10;;
61640;SDS011;62201;49.966;8.342;2023-02-28T08:00:38;3.43;;;2.50;;
61640;SDS011;62201;49.966;8.342;2023-02-28T08:03:03;3.70;;;2.50;;
61640;SDS011;62201;49.966;8.342;2023-02-28T08:05:28;5.37;;;3.07;;
61640;SDS011;62201;49.966;8.342;2023-02-28T08:07:55;8.13;;;2.00;;
61640;SDS011;62201;49.966;8.342;2023-02-28T08:10:20;5.33;;;2.50;;
61640;SDS011;62201;49.966;8.342;2023-02-28T08:12:46;5.83;;;2.87;;
61640;SDS011;62201;49.966;8.342;2023-02-28T08:15:11;8.07;;;2.60;;
61640;SDS011;62201;49.966;8.342;2023-02-28T08:17:37;4.33;;;2.23;;
61640;SDS011;62201;49.966;8.342;2023-02-28T08:20:02;5.67;;;2.70;;
61640;SDS011;62201;49.966;8.342;2023-02-28T08:22:29;6.17;;;2.03;;
61640;SDS011;62201;49.966;8.342;2023-02-28T08:24:54;7.33;;;3.03;;
61640;SDS011;62201;49.966;8.342;2023-02-28T08:27:19;3.77;;;2.03;;
61640;SDS011;62201;49.966;8.342;2023-02-28T08:29:45;5.17;;;2.33;;
61640;SDS011;62201;49.966;8.342;2023-02-28T08:32:10;4.43;;;2.77;;
61640;SDS011;62201;49.966;8.342;2023-02-28T08:34:36;3.87;;;2.30;;
61640;SDS011;62201;49.966;8.342;2023-02-28T08:37:04;7.37;;;3.00;;
61640;SDS011;62201;49.966;8.342;2023-02-28T08:39:29;4.60;;;2.67;;
61640;SDS011;62201;49.966;8.342;2023-02-28T08:41:54;9.83;;;3.10;;
61640;SDS011;62201;49.966;8.342;2023-02-28T08:44:20;5.60;;;2.77;;
61640;SDS011;62201;49.966;8.342;2023-02-28T08:46:45;3.67;;;2.60;;
61640;SDS011;62201;49.966;8.342;2023-02-28T08:49:11;2.80;;;1.87;;
61640;SDS011;62201;49.966;8.342;2023-02-28T08:51:36;7.77;;;2.97;;
61640;SDS011;62201;49.966;8.342;2023-02-28T08:54:03;10.90;;;2.80;;
61640;SDS011;62201;49.966;8.342;2023-02-28T08:56:29;3.93;;;1.87;;
61640;SDS011;62201;49.966;8.342;2023-02-28T08:58:56;6.30;;;2.20;;
61640;SDS011;62201;49.966;8.342;2023-02-28T09:01:23;3.10;;;1.80;;
61640;SDS011;62201;49.966;8.342;2023-02-28T09:03:51;5.20;;;2.00;;
61640;SDS011;62201;49.966;8.342;2023-02-28T09:06:18;4.80;;;2.50;;
61640;SDS011;62201;49.966;8.342;2023-02-28T09:08:45;10.60;;;3.13;;
61640;SDS011;62201;49.966;8.342;2023-02-28T09:11:10;5.43;;;2.30;;
61640;SDS011;62201;49.966;8.342;2023-02-28T09:13:36;3.93;;;2.40;;
61640;SDS011;62201;49.966;8.342;2023-02-28T09:16:02;5.27;;;2.50;;
61640;SDS011;62201;49.966;8.342;2023-02-28T09:18:29;4.00;;;2.50;;
61640;SDS011;62201;49.966;8.342;2023-02-28T09:20:55;6.00;;;2.17;;
61640;SDS011;62201;49.966;8.342;2023-02-28T09:23:22;5.10;;;2.70;;
61640;SDS011;62201;49.966;8.342;2023-02-28T09:25:52;3.73;;;2.00;;
61640;SDS011;62201;49.966;8.342;2023-02-28T09:28:19;4.67;;;2.20;;
61640;SDS011;62201;49.966;8.342;2023-02-28T09:30:46;4.47;;;2.40;;
61640;SDS011;62201;49.966;8.342;2023-02-28T09:33:15;3.40;;;1.80;;
61640;SDS011;62201;49.966;8.342;2023-02-28T09:35:42;4.30;;;2.80;;
61640;SDS011;62201;49.966;8.342;2023-02-28T09:38:07;9.03;;;3.80;;
61640;SDS011;62201;49.966;8.342;2023-02-28T09:40:37;5.13;;;2.40;;
61640;SDS011;62201;49.966;8.342;2023-02-28T09:43:10;2.50;;;1.70;;
61640;SDS011;62201;49.966;8.342;2023-02-28T09:45:40;2.17;;;1.50;;
61640;SDS011;62201;49.966;8.342;2023-02-28T09:48:12;3.67;;;2.10;;
61640;SDS011;62201;49.966;8.342;2023-02-28T09:50:42;3.67;;;2.03;;
61640;SDS011;62201;49.966;8.342;2023-02-28T09:53:29;3.10;;;2.03;;
61640;SDS011;62201;49.966;8.342;2023-02-28T09:56:01;4.57;;;2.30;;
61640;SDS011;62201;49.966;8.342;2023-02-28T10:07:05;4.35;;;1.98;;
61640;SDS011;62201;49.966;8.342;2023-02-28T10:09:42;3.15;;;2.05;;
61640;SDS011;62201;49.966;8.342;2023-02-28T10:12:09;2.40;;;1.92;;
61640;SDS011;62201;49.966;8.342;2023-02-28T10:14:37;4.33;;;2.27;;
61640;SDS011;62201;49.966;8.342;2023-02-28T10:17:08;5.07;;;2.30;;
61640;SDS011;62201;49.966;8.342;2023-02-28T10:19:55;6.63;;;3.10;;
61640;SDS011;62201;49.966;8.342;2023-02-28T10:22:31;5.50;;;1.67;;
61640;SDS011;62201;49.966;8.342;2023-02-28T10:25:01;6.97;;;4.60;;
61640;SDS011;62201;49.966;8.342;2023-02-28T10:27:41;9.80;;;4.23;;
61640;SDS011;62201;49.966;8.342;2023-02-28T10:30:09;5.43;;;2.60;;
61640;SDS011;62201;49.966;8.342;2023-02-28T10:32:36;4.20;;;2.47;;
61640;SDS011;62201;49.966;8.342;2023-02-28T10:37:38;4.97;;;2.30;;
61640;SDS011;62201;49.966;8.342;2023-02-28T10:40:24;4.07;;;1.90;;
61640;SDS011;62201;49.966;8.342;2023-02-28T10:42:56;4.53;;;2.30;;
61640;SDS011;62201;49.966;8.342;2023-02-28T10:45:32;4.50;;;2.40;;
61640;SDS011;62201;49.966;8.342;2023-02-28T10:53:48;4.97;;;2.87;;
61640;SDS011;62201;49.966;8.342;2023-02-28T10:58:42;5.07;;;2.83;;
61640;SDS011;62201;49.966;8.342;2023-02-28T11:01:14;6.60;;;2.90;;
61640;SDS011;62201;49.966;8.342;2023-02-28T11:03:41;5.67;;;2.73;;
61640;SDS011;62201;49.966;8.342;2023-02-28T11:06:07;3.50;;;2.17;;
61640;SDS011;62201;49.966;8.342;2023-02-28T11:08:57;3.93;;;2.50;;
61640;SDS011;62201;49.966;8.342;2023-02-28T11:11:25;7.77;;;3.10;;
61640;SDS011;62201;49.966;8.342;2023-02-28T11:13:53;4.60;;;2.57;;
61640;SDS011;62201;49.966;8.342;2023-02-28T11:16:21;7.90;;;3.40;;
61640;SDS011;62201;49.966;8.342;2023-02-28T11:18:56;4.70;;;2.70;;
61640;SDS011;62201;49.966;8.342;2023-02-28T11:21:26;6.20;;;2.73;;
61640;SDS011;62201;49.966;8.342;2023-02-28T11:24:14;4.13;;;2.58;;
61640;SDS011;62201;49.966;8.342;2023-02-28T11:26:48;4.45;;;2.50;;
61640;SDS011;62201;49.966;8.342;2023-02-28T11:29:24;6.30;;;2.83;;
61640;SDS011;62201;49.966;8.342;2023-02-28T11:32:01;6.30;;;2.30;;
61640;SDS011;62201;49.966;8.342;2023-02-28T11:34:29;3.47;;;2.13;;
61640;SDS011;62201;49.966;8.342;2023-02-28T11:36:55;5.50;;;2.50;;
61640;SDS011;62201;49.966;8.342;2023-02-28T11:39:22;3.90;;;2.10;;
61640;SDS011;62201;49.966;8.342;2023-02-28T11:46:56;6.47;;;3.03;;
61640;SDS011;62201;49.966;8.342;2023-02-28T11:49:37;3.47;;;2.30;;
61640;SDS011;62201;49.966;8.342;2023-02-28T11:55:19;5.40;;;2.87;;
61640;SDS011;62201;49.966;8.342;2023-02-28T11:58:19;4.03;;;2.73;;
61640;SDS011;62201;49.966;8.342;2023-02-28T12:04:01;3.92;;;2.58;;
61640;SDS011;62201;49.966;8.342;2023-02-28T12:09:02;6.03;;;2.30;;
61640;SDS011;62201;49.966;8.342;2023-02-28T12:11:44;5.43;;;2.70;;
61640;SDS011;62201;49.966;8.342;2023-02-28T12:14:53;5.63;;;2.70;;
61640;SDS011;62201;49.966;8.342;2023-02-28T12:20:24;5.80;;;2.47;;
61640;SDS011;62201;49.966;8.342;2023-02-28T12:28:35;6.43;;;3.00;;
61640;SDS011;62201;49.966;8.342;2023-02-28T12:31:11;5.30;;;2.70;;
61640;SDS011;62201;49.966;8.342;2023-02-28T12:34:02;5.80;;;2.60;;
61640;SDS011;62201;49.966;8.342;2023-02-28T12:36:31;6.40;;;3.10;;
61640;SDS011;62201;49.966;8.342;2023-02-28T12:39:02;7.17;;;3.10;;
61640;SDS011;62201;49.966;8.342;2023-02-28T12:41:38;4.67;;;2.90;;
61640;SDS011;62201;49.966;8.342;2023-02-28T12:47:08;4.90;;;2.87;;
61640;SDS011;62201;49.966;8.342;2023-02-28T12:49:43;4.47;;;2.87;;
61640;SDS011;62201;49.966;8.342;2023-02-28T12:54:45;7.13;;;3.03;;
61640;SDS011;62201;49.966;8.342;2023-02-28T12:57:19;6.67;;;2.97;;
61640;SDS011;62201;49.966;8.342;2023-02-28T12:59:57;4.80;;;3.13;;
61640;SDS011;62201;49.966;8.342;2023-02-28T13:10:52;7.00;;;3.23;;
61640;SDS011;62201;49.966;8.342;2023-02-28T13:13:21;4.87;;;3.20;;
61640;SDS011;62201;49.966;8.342;2023-02-28T13:20:57;4.70;;;2.70;;
61640;SDS011;62201;49.966;8.342;2023-02-28T13:26:12;5.67;;;3.43;;
61640;SDS011;62201;49.966;8.342;2023-02-28T13:31:23;6.07;;;2.77;;
61640;SDS011;62201;49.966;8.342;2023-02-28T13:43:59;6.40;;;3.60;;
61640;SDS011;62201;49.966;8.342;2023-02-28T13:46:49;8.77;;;3.60;;
61640;SDS011;62201;49.966;8.342;2023-02-28T13:49:31;5.73;;;3.90;;
61640;SDS011;62201;49.966;8.342;2023-02-28T13:52:02;5.30;;;3.90;;
61640;SDS011;62201;49.966;8.342;2023-02-28T13:54:39;8.00;;;3.97;;
61640;SDS011;62201;49.966;8.342;2023-02-28T14:09:02;6.18;;;3.42;;
61640;SDS011;62201;49.966;8.342;2023-02-28T14:11:34;6.00;;;3.92;;
61640;SDS011;62201;49.966;8.342;2023-02-28T14:14:03;6.78;;;4.10;;
61640;SDS011;62201;49.966;8.342;2023-02-28T14:16:39;7.97;;;3.72;;
61640;SDS011;62201;49.966;8.342;2023-02-28T14:21:45;5.55;;;4.03;;
61640;SDS011;62201;49.966;8.342;2023-02-28T14:38:36;6.18;;;3.95;;
61640;SDS011;62201;49.966;8.342;2023-02-28T14:41:12;6.13;;;4.22;;
61640;SDS011;62201;49.966;8.342;2023-02-28T14:43:56;4.97;;;3.90;;
61640;SDS011;62201;49.966;8.342;2023-02-28T14:46:25;6.13;;;3.92;;
61640;SDS011;62201;49.966;8.342;2023-02-28T14:49:03;6.38;;;3.95;;
61640;SDS011;62201;49.966;8.342;2023-02-28T14:51:30;7.45;;;4.38;;
61640;SDS011;62201;49.966;8.342;2023-02-28T14:53:57;7.63;;;4.70;;
61640;SDS011;62201;49.966;8.342;2023-02-28T14:56:26;6.85;;;4.10;;
61640;SDS011;62201;49.966;8.342;2023-02-28T14:59:24;7.35;;;4.30;;
61640;SDS011;62201;49.966;8.342;2023-02-28T15:01:52;6.45;;;4.30;;
61640;SDS011;62201;49.966;8.342;2023-02-28T15:04:39;9.40;;;4.25;;
61640;SDS011;62201;49.966;8.342;2023-02-28T15:07:07;6.28;;;4.28;;
61640;SDS011;62201;49.966;8.342;2023-02-28T15:09:42;5.78;;;3.85;;
61640;SDS011;62201;49.966;8.342;2023-02-28T15:12:07;5.22;;;4.22;;
61640;SDS011;62201;49.966;8.342;2023-02-28T15:14:36;6.15;;;4.20;;
61640;SDS011;62201;49.966;8.342;2023-02-28T15:17:09;6.18;;;4.38;;
61640;SDS011;62201;49.966;8.342;2023-02-28T15:19:43;8.27;;;4.20;;
61640;SDS011;62201;49.966;8.342;2023-02-28T15:22:15;6.38;;;4.18;;
61640;SDS011;62201;49.966;8.342;2023-02-28T15:24:44;6.13;;;4.07;;
61640;SDS011;62201;49.966;8.342;2023-02-28T15:27:14;6.65;;;4.10;;
61640;SDS011;62201;49.966;8.342;2023-02-28T15:29:46;8.00;;;4.00;;
61640;SDS011;62201;49.966;8.342;2023-02-28T15:32:32;10.23;;;4.55;;
61640;SDS011;62201;49.966;8.342;2023-02-28T15:35:17;7.30;;;4.22;;
61640;SDS011;62201;49.966;8.342;2023-02-28T15:37:52;10.35;;;4.45;;
61640;SDS011;62201;49.966;8.342;2023-02-28T15:43:15;7.75;;;4.43;;
61640;SDS011;62201;49.966;8.342;2023-02-28T15:45:49;5.97;;;4.43;;
61640;SDS011;62201;49.966;8.342;2023-02-28T15:48:17;6.78;;;4.40;;
61640;SDS011;62201;49.966;8.342;2023-02-28T15:50:43;5.78;;;3.95;;
61640;SDS011;62201;49.966;8.342;2023-02-28T15:53:13;6.07;;;4.22;;
61640;SDS011;62201;49.966;8.342;2023-02-28T15:55:41;6.13;;;4.20;;
61640;SDS011;62201;49.966;8.342;2023-02-28T15:58:07;10.35;;;4.20;;
61640;SDS011;62201;49.966;8.342;2023-02-28T16:00:37;6.80;;;3.95;;
61640;SDS011;62201;49.966;8.342;2023-02-28T16:03:23;8.98;;;4.40;;
61640;SDS011;62201;49.966;8.342;2023-02-28T16:06:09;5.85;;;4.50;;
61640;SDS011;62201;49.966;8.342;2023-02-28T16:08:48;7.03;;;4.57;;
61640;SDS011;62201;49.966;8.342;2023-02-28T16:11:16;9.02;;;4.22;;
61640;SDS011;62201;49.966;8.342;2023-02-28T16:13:41;5.85;;;4.32;;
61640;SDS011;62201;49.966;8.342;2023-02-28T16:16:07;5.95;;;3.80;;
61640;SDS011;62201;49.966;8.342;2023-02-28T16:18:33;7.20;;;4.60;;
61640;SDS011;62201;49.966;8.342;2023-02-28T16:20:58;6.70;;;4.10;;
61640;SDS011;62201;49.966;8.342;2023-02-28T16:23:23;7.95;;;4.18;;
61640;SDS011;62201;49.966;8.342;2023-02-28T16:25:49;7.07;;;4.30;;
61640;SDS011;62201;49.966;8.342;2023-02-28T16:28:23;5.53;;;4.07;;
61640;SDS011;62201;49.966;8.342;2023-02-28T16:30:51;5.90;;;3.97;;
61640;SDS011;62201;49.966;8.342;2023-02-28T16:33:17;8.35;;;4.00;;
61640;SDS011;62201;49.966;8.342;2023-02-28T16:35:43;5.43;;;3.97;;
61640;SDS011;62201;49.966;8.342;2023-02-28T16:40:34;6.03;;;4.37;;
61640;SDS011;62201;49.966;8.342;2023-02-28T16:43:03;6.93;;;4.57;;
61640;SDS011;62201;49.966;8.342;2023-02-28T16:45:32;7.57;;;5.07;;
61640;SDS011;62201;49.966;8.342;2023-02-28T16:48:01;7.07;;;4.40;;
61640;SDS011;62201;49.966;8.342;2023-02-28T16:50:29;7.33;;;3.97;;
61640;SDS011;62201;49.966;8.342;2023-02-28T16:52:57;8.30;;;4.70;;
61640;SDS011;62201;49.966;8.342;2023-02-28T16:55:29;9.52;;;4.55;;
61640;SDS011;62201;49.966;8.342;2023-02-28T16:57:58;8.67;;;4.50;;
61640;SDS011;62201;49.966;8.342;2023-02-28T17:00:27;10.23;;;4.90;;
61640;SDS011;62201;49.966;8.342;2023-02-28T17:02:54;7.57;;;4.67;;
61640;SDS011;62201;49.966;8.342;2023-02-28T17:05:21;9.80;;;5.43;;
61640;SDS011;62201;49.966;8.342;2023-02-28T17:08:00;8.70;;;4.70;;
61640;SDS011;62201;49.966;8.342;2023-02-28T17:10:28;9.63;;;4.77;;
61640;SDS011;62201;49.966;8.342;2023-02-28T17:12:54;10.93;;;5.10;;
61640;SDS011;62201;49.966;8.342;2023-02-28T17:15:19;9.33;;;4.90;;
61640;SDS011;62201;49.966;8.342;2023-02-28T17:17:45;7.40;;;4.87;;
61640;SDS011;62201;49.966;8.342;2023-02-28T17:20:14;11.60;;;5.40;;
61640;SDS011;62201;49.966;8.342;2023-02-28T17:22:41;7.47;;;5.20;;
61640;SDS011;62201;49.966;8.342;2023-02-28T17:25:07;9.67;;;5.03;;
61640;SDS011;62201;49.966;8.342;2023-02-28T17:27:33;7.90;;;4.60;;
61640;SDS011;62201;49.966;8.342;2023-02-28T17:29:59;9.20;;;5.50;;
61640;SDS011;62201;49.966;8.342;2023-02-28T17:32:24;8.37;;;5.17;;
61640;SDS011;62201;49.966;8.342;2023-02-28T17:34:50;9.10;;;5.00;;